Terminal Aerodrome Forecast
Issued by NWS

Home | Current Version | Previous Version | Text Only | Print | Product List | Glossary On
Versions: 1 2 3 4 5 6 7 8 9 10 11 12 13 14
000
FTAK31 PAJN 050526
TAFAJN
TAF
PAJN 050526Z 0506/0606 08008KT P6SM SCT040 BKN080
     FM051100 09006KT P6SM SCT025 BKN050
     FM051500 11006KT P6SM OVC050
     FM052100 12008KT P6SM VCSH OVC035
     FM060300 12009KT P6SM -SHRA BKN030 OVC035=

USA.gov is the U.S. government's official web portal to all federal, state and local government web resources and services.